createdAt,value
2023-08-08T00:01:50.426Z,4.20
2023-08-08T00:04:18.238Z,4.72
2023-08-08T00:06:46.019Z,4.38
2023-08-08T00:09:14.812Z,4.68
2023-08-08T00:11:44.464Z,3.55
2023-08-08T00:14:12.575Z,4.75
2023-08-08T00:16:40.600Z,6.97
2023-08-08T00:19:09.447Z,4.57
2023-08-08T00:21:37.241Z,4.80
2023-08-08T00:24:05.257Z,5.05
2023-08-08T00:26:33.102Z,4.28
2023-08-08T00:29:02.369Z,5.20
2023-08-08T00:31:30.198Z,4.55
2023-08-08T00:33:58.054Z,4.28
2023-08-08T00:36:25.999Z,4.43
2023-08-08T00:38:53.893Z,4.47
2023-08-08T00:41:22.758Z,4.17
2023-08-08T00:43:51.298Z,3.38
2023-08-08T00:46:23.384Z,3.78
2023-08-08T00:48:51.424Z,2.70
2023-08-08T00:51:19.330Z,3.53
2023-08-08T00:53:47.374Z,5.07
2023-08-08T00:56:16.388Z,4.50
2023-08-08T00:58:46.547Z,4.30
2023-08-08T01:01:14.721Z,4.47
2023-08-08T01:03:43.995Z,3.92
2023-08-08T01:06:16.603Z,3.10
2023-08-08T01:08:49.035Z,3.42
2023-08-08T01:11:17.901Z,5.57
2023-08-08T01:13:47.830Z,3.85
2023-08-08T01:16:16.198Z,3.67
2023-08-08T01:18:47.068Z,3.77
2023-08-08T01:21:17.002Z,3.95
2023-08-08T01:23:47.436Z,2.70
2023-08-08T01:26:16.705Z,3.92
2023-08-08T01:28:44.906Z,4.35
2023-08-08T01:31:12.710Z,5.75
2023-08-08T01:33:40.739Z,5.47
2023-08-08T01:36:15.451Z,4.45
2023-08-08T01:38:45.796Z,5.30
2023-08-08T01:41:13.667Z,4.78
2023-08-08T01:43:43.116Z,3.53
2023-08-08T01:46:11.610Z,4.10
2023-08-08T01:48:39.423Z,6.22
2023-08-08T01:51:07.559Z,5.75
2023-08-08T01:53:35.388Z,3.78
2023-08-08T01:56:04.143Z,4.78
2023-08-08T01:58:31.944Z,5.15
2023-08-08T02:01:01.134Z,3.80
2023-08-08T02:03:29.036Z,6.75
2023-08-08T02:05:56.826Z,6.72
2023-08-08T02:08:24.719Z,5.45
2023-08-08T02:10:52.443Z,5.88
2023-08-08T02:13:20.196Z,4.40
2023-08-08T02:15:48.539Z,6.43
2023-08-08T02:18:17.614Z,6.82
2023-08-08T02:20:45.447Z,5.70
2023-08-08T02:23:13.251Z,5.15
2023-08-08T02:25:41.098Z,6.10
2023-08-08T02:28:08.912Z,5.93
2023-08-08T02:30:36.672Z,6.53
2023-08-08T02:33:04.685Z,6.20
2023-08-08T02:35:33.992Z,6.70
2023-08-08T02:38:01.759Z,8.10
2023-08-08T02:40:29.494Z,6.60
2023-08-08T02:42:57.254Z,5.22
2023-08-08T02:45:25.027Z,7.38
2023-08-08T02:47:52.865Z,8.02
2023-08-08T02:50:20.716Z,6.22
2023-08-08T02:52:49.882Z,7.93
2023-08-08T02:55:18.125Z,6.43
2023-08-08T02:57:45.935Z,7.67
2023-08-08T03:00:14.697Z,6.15
2023-08-08T03:02:42.637Z,8.23
2023-08-08T03:05:10.930Z,8.75
2023-08-08T03:07:38.699Z,8.73
2023-08-08T03:10:08.464Z,6.22
2023-08-08T03:12:36.233Z,6.97
2023-08-08T03:15:05.426Z,6.30
2023-08-08T03:17:33.573Z,8.97
2023-08-08T03:20:01.554Z,8.03
2023-08-08T03:22:29.530Z,7.22
2023-08-08T03:24:57.542Z,5.78
2023-08-08T03:27:26.807Z,7.00
2023-08-08T03:29:54.586Z,6.03
2023-08-08T03:32:22.498Z,8.32
2023-08-08T03:34:50.300Z,6.73
2023-08-08T03:37:18.198Z,8.25
2023-08-08T03:39:45.930Z,7.30
2023-08-08T03:42:13.694Z,7.97
2023-08-08T03:44:42.909Z,8.10
2023-08-08T03:47:19.112Z,9.20
2023-08-08T03:49:48.043Z,7.63
2023-08-08T03:52:16.028Z,8.40
2023-08-08T03:54:45.122Z,8.32
2023-08-08T03:57:13.049Z,9.98
2023-08-08T03:59:42.207Z,9.38
2023-08-08T04:02:10.127Z,9.55
2023-08-08T04:04:37.954Z,7.53
2023-08-08T04:07:06.023Z,9.88
2023-08-08T04:09:33.936Z,7.97
2023-08-08T04:12:02.298Z,9.98
2023-08-08T04:14:30.416Z,8.50
2023-08-08T04:16:59.672Z,8.35
2023-08-08T04:19:27.457Z,7.97
2023-08-08T04:21:55.270Z,6.88
2023-08-08T04:24:23.093Z,8.40
2023-08-08T04:26:50.860Z,6.70
2023-08-08T04:29:18.672Z,9.55
2023-08-08T04:31:46.426Z,8.02
2023-08-08T04:34:15.789Z,8.18
2023-08-08T04:36:43.516Z,7.82
2023-08-08T04:39:11.289Z,8.93
2023-08-08T04:41:39.140Z,8.38
2023-08-08T04:44:06.926Z,8.38
2023-08-08T04:46:34.677Z,9.95
2023-08-08T04:49:02.511Z,10.13
2023-08-08T04:51:31.734Z,8.35
2023-08-08T04:53:59.549Z,5.93
2023-08-08T04:56:28.141Z,7.90
2023-08-08T04:58:58.046Z,7.30
2023-08-08T05:01:25.979Z,8.02
2023-08-08T05:03:54.580Z,8.10
2023-08-08T05:06:23.969Z,9.77
2023-08-08T05:08:54.089Z,5.50
2023-08-08T05:11:21.890Z,6.40
2023-08-08T05:13:49.766Z,7.10
2023-08-08T05:16:17.629Z,5.32
2023-08-08T05:18:46.524Z,7.07
2023-08-08T05:21:14.539Z,6.88
2023-08-08T05:23:42.385Z,6.55
2023-08-08T05:26:11.548Z,6.93
2023-08-08T05:28:39.391Z,7.77
2023-08-08T05:31:07.228Z,6.53
2023-08-08T05:33:35.183Z,6.50
2023-08-08T05:36:02.934Z,6.63
2023-08-08T05:38:30.759Z,7.85
2023-08-08T05:40:58.629Z,7.32
2023-08-08T05:43:29.868Z,8.27
2023-08-08T05:45:58.766Z,8.02
2023-08-08T05:48:26.636Z,6.23
2023-08-08T05:50:54.671Z,7.75
2023-08-08T05:53:22.490Z,6.97
2023-08-08T05:55:51.208Z,8.13
2023-08-08T05:58:19.290Z,8.40
2023-08-08T06:00:48.646Z,7.10
2023-08-08T06:03:16.390Z,13.05
2023-08-08T06:05:44.228Z,7.38
2023-08-08T06:08:13.318Z,6.82
2023-08-08T06:10:41.245Z,8.60
2023-08-08T06:13:09.112Z,8.35
2023-08-08T06:15:36.985Z,7.90
2023-08-08T06:18:07.212Z,7.78
2023-08-08T06:20:35.324Z,8.32
2023-08-08T06:23:03.174Z,9.73
2023-08-08T06:25:31.130Z,6.57
2023-08-08T06:27:58.901Z,5.03
2023-08-08T06:30:26.710Z,8.77
2023-08-08T06:32:54.623Z,5.60
2023-08-08T06:35:23.729Z,6.25
2023-08-08T06:37:51.566Z,5.80
2023-08-08T06:40:19.628Z,3.35
2023-08-08T06:42:47.383Z,6.45
2023-08-08T06:45:15.244Z,5.03
2023-08-08T06:47:43.052Z,5.20
2023-08-08T06:50:11.690Z,5.27
2023-08-08T06:52:41.647Z,5.97
2023-08-08T06:55:10.366Z,4.87
2023-08-08T06:57:38.353Z,6.97
2023-08-08T07:00:07.426Z,3.53
2023-08-08T07:02:35.307Z,4.97
2023-08-08T07:05:04.970Z,4.18
2023-08-08T07:07:34.480Z,3.03
2023-08-08T07:10:04.992Z,5.45
2023-08-08T07:12:32.841Z,4.93
2023-08-08T07:15:00.682Z,3.03
2023-08-08T07:17:28.444Z,3.30
2023-08-08T07:19:57.672Z,6.70
2023-08-08T07:22:25.503Z,2.15
2023-08-08T07:24:53.507Z,3.80
2023-08-08T07:27:23.138Z,3.55
2023-08-08T07:29:51.316Z,4.78
2023-08-08T07:32:19.047Z,2.33
2023-08-08T07:34:46.958Z,2.63
2023-08-08T07:37:16.252Z,3.60
2023-08-08T07:39:43.979Z,4.03
2023-08-08T07:42:11.804Z,5.00
2023-08-08T07:44:40.983Z,3.15
2023-08-08T07:47:10.405Z,2.63
2023-08-08T07:49:39.009Z,2.55
2023-08-08T07:52:08.208Z,3.20
2023-08-08T07:54:36.138Z,3.05
2023-08-08T07:57:04.012Z,2.50
2023-08-08T07:59:31.831Z,3.28
2023-08-08T08:02:01.188Z,3.70
2023-08-08T08:04:29.101Z,3.58
2023-08-08T08:06:57.016Z,2.47
2023-08-08T08:09:24.792Z,2.92
2023-08-08T08:11:52.565Z,3.23
2023-08-08T08:14:21.873Z,2.90
2023-08-08T08:16:49.727Z,1.67
2023-08-08T08:19:19.061Z,3.35
2023-08-08T08:21:46.782Z,2.90
2023-08-08T08:24:15.209Z,1.80
2023-08-08T08:26:43.857Z,2.10
2023-08-08T08:29:11.661Z,1.90
2023-08-08T08:31:39.726Z,3.00
2023-08-08T08:34:07.532Z,2.60
2023-08-08T08:36:36.808Z,1.42
2023-08-08T08:39:06.162Z,1.15
2023-08-08T08:41:34.214Z,2.95
2023-08-08T08:44:02.205Z,1.90
2023-08-08T08:46:31.603Z,3.65
2023-08-08T08:49:00.899Z,2.90
2023-08-08T08:51:28.720Z,1.33
2023-08-08T08:53:58.745Z,1.58
2023-08-08T08:56:26.908Z,3.70
2023-08-08T08:58:54.656Z,1.40
2023-08-08T09:01:23.982Z,2.35
2023-08-08T09:03:51.841Z,1.40
2023-08-08T09:06:22.192Z,0.70
2023-08-08T09:08:51.816Z,0.77
2023-08-08T09:11:22.756Z,1.67
2023-08-08T09:13:50.496Z,1.77
2023-08-08T09:16:18.961Z,1.00
2023-08-08T09:18:46.906Z,1.55
2023-08-08T09:21:16.817Z,1.73
2023-08-08T09:23:46.344Z,2.10
2023-08-08T09:26:17.414Z,1.50
2023-08-08T09:28:46.623Z,1.27
2023-08-08T09:31:14.542Z,1.25
2023-08-08T09:33:42.312Z,1.50
2023-08-08T09:36:10.176Z,2.60
2023-08-08T09:38:37.835Z,1.15
2023-08-08T09:41:05.598Z,1.88
2023-08-08T09:43:33.604Z,2.17
2023-08-08T09:46:03.997Z,1.08
2023-08-08T09:48:32.475Z,2.50
2023-08-08T09:51:01.424Z,2.13
2023-08-08T09:53:30.377Z,1.23
2023-08-08T09:55:58.927Z,0.98
2023-08-08T09:58:27.549Z,1.20
2023-08-08T10:00:55.579Z,1.45
2023-08-08T10:03:25.432Z,1.73
2023-08-08T10:05:53.247Z,2.33
2023-08-08T10:08:21.894Z,0.60
2023-08-08T10:10:50.494Z,1.25
2023-08-08T10:13:21.791Z,2.28
2023-08-08T10:15:49.605Z,1.38
2023-08-08T10:18:17.452Z,0.88
2023-08-08T10:20:48.852Z,1.20
2023-08-08T10:23:17.285Z,1.50
2023-08-08T10:25:46.481Z,1.00
2023-08-08T10:28:26.363Z,1.17
2023-08-08T10:30:57.538Z,1.40
2023-08-08T10:33:27.027Z,1.70
2023-08-08T10:36:05.206Z,1.00
2023-08-08T10:38:43.801Z,0.90
2023-08-08T10:41:13.853Z,2.03
2023-08-08T10:43:50.036Z,0.60
2023-08-08T10:46:25.961Z,0.43
2023-08-08T10:48:54.727Z,2.10
2023-08-08T10:51:24.058Z,3.17
2023-08-08T10:53:53.730Z,0.60
2023-08-08T10:56:21.707Z,1.00
2023-08-08T10:58:50.542Z,0.65
2023-08-08T11:01:18.669Z,1.08
2023-08-08T11:03:48.940Z,2.67
2023-08-08T11:06:19.362Z,0.88
2023-08-08T11:08:48.608Z,0.80
2023-08-08T11:11:16.418Z,0.70
2023-08-08T11:13:44.139Z,1.90
2023-08-08T11:16:12.247Z,0.80
2023-08-08T11:18:39.989Z,1.83
2023-08-08T11:21:18.362Z,1.63
2023-08-08T11:23:49.479Z,0.80
2023-08-08T11:26:20.208Z,1.00
2023-08-08T11:28:52.360Z,1.05
2023-08-08T11:31:20.410Z,1.37
2023-08-08T11:33:49.117Z,1.88
2023-08-08T11:36:19.347Z,0.90
2023-08-08T11:38:48.686Z,5.43
2023-08-08T11:41:18.317Z,1.33
2023-08-08T11:43:47.244Z,0.88
2023-08-08T11:46:16.244Z,1.00
2023-08-08T11:48:44.231Z,1.42
